Time;durP1;ratioP1;P1;durP2;ratioP2;P2;SDS_P1;SDS_P2;PMS_P1;PMS_P2;Temp;Humidity;BMP_temperature;BMP_pressure;BME280_temperature;BME280_humidity;BME280_pressure;Samples;Min_cycle;Max_cycle;Signal;HPM_P1;HPM_P2
2022/12/12 00:01:31;;;;;;;74.60;33.13;;;0.20;99.90;;;;;;5060991;28;20118;-65
2022/12/12 00:03:57;;;;;;;73.55;33.13;;;0.30;99.90;;;;;;5078894;28;20059;-64
2022/12/12 00:06:23;;;;;;;65.15;30.63;;;0.30;99.90;;;;;;5076039;28;20532;-63
2022/12/12 00:08:49;;;;;;;68.13;31.15;;;-0.30;99.90;;;;;;5060041;28;20103;-64
2022/12/12 00:11:15;;;;;;;69.72;30.77;;;-0.30;99.90;;;;;;5076275;28;20630;-66
2022/12/12 00:13:41;;;;;;;73.25;31.90;;;0.30;99.90;;;;;;5076837;28;20440;-65
2022/12/12 00:16:08;;;;;;;71.57;33.30;;;-0.40;99.90;;;;;;5074689;28;20674;-66
2022/12/12 00:18:37;;;;;;;69.10;31.17;;;-0.40;99.90;;;;;;5058712;28;20032;-66
2022/12/12 00:21:06;;;;;;;71.43;33.20;;;-0.40;99.90;;;;;;5077282;28;20506;-66
2022/12/12 00:23:32;;;;;;;68.57;30.55;;;0.70;99.90;;;;;;5091283;27;20239;-66
2022/12/12 00:26:04;;;;;;;66.35;31.83;;;0.60;99.90;;;;;;5074212;28;20110;-65
2022/12/12 00:28:30;;;;;;;68.40;30.08;;;0.60;99.90;;;;;;5077823;28;20045;-66
2022/12/12 00:30:56;;;;;;;74.22;33.50;;;-0.10;99.90;;;;;;5090886;28;20060;-66
2022/12/12 00:33:22;;;;;;;72.35;34.17;;;-0.50;99.90;;;;;;5089095;28;20517;-65
2022/12/12 00:35:52;;;;;;;67.15;32.47;;;0.40;99.90;;;;;;5077832;28;20048;-66
2022/12/12 00:38:19;;;;;;;69.95;31.33;;;-0.40;99.90;;;;;;5073553;28;20296;-65
2022/12/12 00:40:45;;;;;;;68.38;30.45;;;-0.20;99.90;;;;;;5074437;28;20127;-66
2022/12/12 00:43:10;;;;;;;70.20;33.75;;;0.70;99.90;;;;;;5059768;28;20399;-65
2022/12/12 00:45:37;;;;;;;69.10;30.25;;;0.60;99.90;;;;;;5076796;28;20298;-66
2022/12/12 00:48:04;;;;;;;71.50;34.60;;;0.10;99.90;;;;;;5091757;27;20124;-65
2022/12/12 00:50:30;;;;;;;77.50;34.90;;;-0.30;99.90;;;;;;5058744;28;20054;-66
2022/12/12 00:52:56;;;;;;;75.28;33.60;;;0.10;99.90;;;;;;5058430;28;20047;-66
2022/12/12 00:55:26;;;;;;;74.68;35.05;;;0.70;99.90;;;;;;5073511;28;20075;-65
2022/12/12 00:57:54;;;;;;;72.03;33.78;;;0.70;99.90;;;;;;5075652;28;20469;-66
2022/12/12 01:00:21;;;;;;;79.13;34.38;;;-0.40;99.90;;;;;;5059780;28;20080;-66
2022/12/12 01:02:47;;;;;;;70.78;31.15;;;0.70;99.90;;;;;;5105804;27;20040;-66
2022/12/12 01:05:14;;;;;;;76.25;34.20;;;0.60;99.90;;;;;;5075407;28;20047;-66
2022/12/12 01:07:40;;;;;;;73.38;33.50;;;0.70;99.90;;;;;;5076537;28;20758;-66
2022/12/12 01:10:06;;;;;;;77.88;34.80;;;-0.50;99.90;;;;;;5073853;28;20040;-67
2022/12/12 01:12:32;;;;;;;72.55;33.88;;;-0.50;99.90;;;;;;5075484;28;20087;-66
2022/12/12 01:14:58;;;;;;;76.43;34.40;;;0.70;99.90;;;;;;5074881;28;20330;-66
2022/12/12 01:17:24;;;;;;;78.13;36.67;;;-0.30;99.90;;;;;;5078584;28;20151;-65
2022/12/12 01:19:50;;;;;;;77.35;34.17;;;0.10;99.90;;;;;;5073949;28;20443;-66
2022/12/12 01:22:16;;;;;;;74.20;34.67;;;-0.10;99.90;;;;;;5071972;28;20044;-66
2022/12/12 01:24:41;;;;;;;72.15;34.17;;;-0.70;99.90;;;;;;5058789;28;20089;-65
2022/12/12 01:27:07;;;;;;;76.57;32.33;;;-0.40;99.90;;;;;;5073239;28;20092;-64
2022/12/12 01:29:33;;;;;;;72.10;34.03;;;-0.30;99.90;;;;;;5090352;28;20076;-70
2022/12/12 01:31:59;;;;;;;72.60;35.97;;;0.50;99.90;;;;;;5075560;28;20302;-65
2022/12/12 01:34:25;;;;;;;72.88;33.83;;;0.40;99.90;;;;;;5074316;28;20036;-65
2022/12/12 01:36:51;;;;;;;74.75;34.83;;;0.60;99.90;;;;;;5076650;28;20035;-65
2022/12/12 01:39:17;;;;;;;70.50;31.75;;;0.00;99.90;;;;;;5076301;28;20244;-65
2022/12/12 01:41:43;;;;;;;78.75;34.70;;;0.70;99.90;;;;;;5075223;28;20040;-65
2022/12/12 01:44:37;;;;;;;76.22;33.47;;;0.40;99.90;;;;;;5106259;28;20048;-64
2022/12/12 01:47:03;;;;;;;68.40;30.42;;;0.00;99.90;;;;;;5077818;28;20044;-66
2022/12/12 01:49:29;;;;;;;72.63;33.78;;;-0.40;99.90;;;;;;5075333;28;20047;-66
2022/12/12 01:51:59;;;;;;;75.55;34.42;;;-0.50;99.90;;;;;;5056957;28;20044;-66
2022/12/12 01:54:34;;;;;;;74.22;34.67;;;-0.50;99.90;;;;;;5074757;28;20040;-66
2022/12/12 01:57:04;;;;;;;70.90;33.83;;;0.60;99.90;;;;;;5074278;28;21136;-65
2022/12/12 01:59:33;;;;;;;78.43;35.03;;;-0.70;99.90;;;;;;5056274;28;20110;-64
2022/12/12 02:01:59;;;;;;;75.90;34.33;;;0.70;99.90;;;;;;5077222;28;20040;-65
2022/12/12 02:04:27;;;;;;;75.75;34.85;;;-0.20;99.90;;;;;;5076333;28;20322;-65
2022/12/12 02:06:54;;;;;;;73.10;34.45;;;0.60;99.90;;;;;;5076717;28;20199;-66
2022/12/12 02:09:21;;;;;;;65.70;31.25;;;-0.60;99.90;;;;;;5076505;28;20044;-65
2022/12/12 02:11:49;;;;;;;73.38;33.75;;;0.40;99.90;;;;;;5076110;28;20047;-64
2022/12/12 02:14:22;;;;;;;72.40;32.50;;;-0.10;99.90;;;;;;5085727;28;20361;-66
2022/12/12 02:17:11;;;;;;;70.13;32.38;;;0.40;99.90;;;;;;5077160;28;20068;-64
2022/12/12 02:20:04;;;;;;;66.38;32.00;;;0.60;99.90;;;;;;5059529;28;20048;-65
2022/12/12 02:23:01;;;;;;;69.70;32.08;;;-0.50;99.90;;;;;;5079179;28;20167;-65
2022/12/12 02:25:48;;;;;;;71.88;34.33;;;0.40;99.90;;;;;;5079375;28;20376;-66
2022/12/12 02:28:42;;;;;;;73.18;34.03;;;-0.70;99.90;;;;;;5079330;28;20114;-65
2022/12/12 02:31:33;;;;;;;70.88;33.33;;;0.10;99.90;;;;;;5076912;28;20062;-65
2022/12/12 02:34:44;;;;;;;70.55;32.75;;;-0.70;99.90;;;;;;5109073;27;20040;-66
2022/12/12 02:37:14;;;;;;;68.38;31.63;;;-0.50;99.90;;;;;;5072004;28;20069;-66
2022/12/12 02:39:58;;;;;;;71.95;33.80;;;0.60;99.90;;;;;;5079384;28;20067;-65
2022/12/12 02:42:36;;;;;;;73.80;34.95;;;0.40;99.90;;;;;;5061508;28;20109;-66
2022/12/12 02:45:31;;;;;;;75.90;34.55;;;-0.60;99.90;;;;;;5073765;28;20058;-65
2022/12/12 02:48:04;;;;;;;72.72;32.17;;;0.40;99.90;;;;;;5095798;27;20063;-65
2022/12/12 02:50:31;;;;;;;79.10;35.75;;;-0.70;99.90;;;;;;5079241;28;20047;-66
2022/12/12 02:52:59;;;;;;;71.60;34.33;;;-0.70;99.90;;;;;;5077719;28;20051;-66
2022/12/12 02:55:25;;;;;;;74.57;35.72;;;0.40;99.90;;;;;;5061445;28;20043;-65
2022/12/12 02:57:53;;;;;;;67.28;33.17;;;0.60;99.90;;;;;;5079187;28;20453;-65
2022/12/12 03:00:19;;;;;;;74.55;34.95;;;-0.70;99.90;;;;;;5073619;28;20269;-65
2022/12/12 03:09:03;;;;;;;65.75;34.05;;;0.60;99.90;;;;;;5076988;28;20040;-66
2022/12/12 03:11:49;;;;;;;68.55;35.25;;;0.50;99.90;;;;;;5079606;28;20063;-65
2022/12/12 03:14:53;;;;;;;77.38;36.40;;;-0.20;99.90;;;;;;5077089;28;20131;-65
2022/12/12 03:17:28;;;;;;;74.55;34.95;;;0.50;99.90;;;;;;5061765;28;20044;-66
2022/12/12 03:20:15;;;;;;;71.00;35.03;;;-0.60;99.90;;;;;;5078384;28;20063;-65
2022/12/12 03:22:46;;;;;;;68.70;34.95;;;0.60;99.90;;;;;;5079860;28;20115;-65
2022/12/12 03:25:22;;;;;;;69.03;34.60;;;-0.40;99.90;;;;;;5079352;28;20040;-65
2022/12/12 03:27:57;;;;;;;72.18;34.78;;;0.20;99.90;;;;;;5107367;27;20043;-65
2022/12/12 03:30:23;;;;;;;72.72;34.45;;;0.20;99.90;;;;;;5076703;28;20137;-66
2022/12/12 03:32:52;;;;;;;66.22;33.67;;;0.60;99.90;;;;;;5073902;28;20470;-65
2022/12/12 03:35:26;;;;;;;65.90;33.10;;;-0.10;99.90;;;;;;5079515;28;20689;-65
2022/12/12 03:38:03;;;;;;;64.38;33.55;;;-0.30;99.90;;;;;;5108649;27;20048;-63
2022/12/12 03:40:39;;;;;;;62.97;32.83;;;-0.70;99.90;;;;;;5060292;28;20434;-64
2022/12/12 03:43:13;;;;;;;64.10;33.25;;;-0.50;99.90;;;;;;5082197;28;20386;-64
2022/12/12 03:46:05;;;;;;;;;;;-0.60;99.90;;;;;;5109810;27;20354;-64
2022/12/12 03:48:40;;;;;;;61.08;32.92;;;0.40;99.90;;;;;;5073877;28;20028;-65
2022/12/12 03:51:24;;;;;;;59.33;30.85;;;0.40;99.90;;;;;;5080317;28;20481;-65
2022/12/12 03:54:02;;;;;;;63.85;34.22;;;-0.40;99.90;;;;;;5076602;28;20127;-65
2022/12/12 03:56:30;;;;;;;65.60;34.67;;;-0.60;99.90;;;;;;5065743;28;20050;-63
2022/12/12 03:59:02;;;;;;;62.70;33.22;;;0.50;99.90;;;;;;5077997;28;20543;-64
2022/12/12 04:02:04;;;;;;;62.55;32.88;;;-0.60;99.90;;;;;;5058694;28;20944;-66
2022/12/12 04:04:42;;;;;;;65.55;33.55;;;0.50;99.90;;;;;;5072707;28;20048;-66
2022/12/12 04:07:19;;;;;;;65.72;33.92;;;-0.60;99.90;;;;;;5078437;28;20032;-66
2022/12/12 04:12:59;;;;;;;59.30;32.47;;;0.50;99.90;;;;;;5063500;28;20607;-65
2022/12/12 04:15:31;;;;;;;63.63;33.17;;;0.50;99.90;;;;;;5109165;27;20036;-66
2022/12/12 04:18:05;;;;;;;61.17;31.83;;;-0.60;99.90;;;;;;5075961;28;20055;-65
2022/12/12 04:23:25;;;;;;;61.95;32.55;;;-0.60;99.90;;;;;;5078711;28;20055;-66
2022/12/12 04:29:18;;;;;;;59.63;30.42;;;0.50;99.90;;;;;;5107402;27;20043;-66
2022/12/12 04:31:47;;;;;;;;;;;0.50;99.90;;;;;;5077027;28;20546;-66
2022/12/12 04:34:23;;;;;;;63.15;31.38;;;-0.60;99.90;;;;;;5073859;28;20085;-65
2022/12/12 04:36:49;;;;;;;61.47;32.67;;;0.00;99.90;;;;;;5056506;28;20108;-65
2022/12/12 04:39:18;;;;;;;59.70;32.47;;;0.40;99.90;;;;;;5084503;28;20509;-65
2022/12/12 04:41:46;;;;;;;56.58;31.85;;;0.30;99.90;;;;;;5073800;28;20257;-65
2022/12/12 04:44:14;;;;;;;61.95;32.78;;;0.30;99.90;;;;;;5077566;28;20082;-64
2022/12/12 04:46:40;;;;;;;58.88;31.38;;;-0.20;99.90;;;;;;5076483;28;20083;-64
2022/12/12 04:49:14;;;;;;;61.35;33.15;;;0.40;99.90;;;;;;5076840;28;20043;-64
2022/12/12 04:51:44;;;;;;;56.85;32.42;;;0.40;99.90;;;;;;5075430;28;20111;-66
2022/12/12 04:54:39;;;;;;;64.28;34.53;;;0.30;99.90;;;;;;5107546;27;20063;-65
2022/12/12 04:57:08;;;;;;;59.92;32.65;;;-0.50;99.90;;;;;;5068273;28;20075;-66
2022/12/12 04:59:34;;;;;;;59.50;32.67;;;-0.60;99.90;;;;;;5076443;28;20473;-65
2022/12/12 05:02:27;;;;;;;58.13;31.05;;;-0.60;99.90;;;;;;5077684;28;20046;-65
2022/12/12 05:04:58;;;;;;;60.10;32.88;;;0.20;99.90;;;;;;5072086;28;20740;-65
2022/12/12 05:07:38;;;;;;;61.63;32.85;;;0.30;99.90;;;;;;5056229;28;20274;-66
2022/12/12 05:10:10;;;;;;;59.42;32.35;;;-0.60;99.90;;;;;;5077262;28;20067;-65
2022/12/12 05:12:48;;;;;;;58.00;31.45;;;0.30;99.90;;;;;;5104611;27;20043;-65
2022/12/12 05:15:16;;;;;;;50.45;29.63;;;-0.50;99.90;;;;;;5076442;28;20050;-65
2022/12/12 05:17:46;;;;;;;56.90;33.10;;;0.00;99.90;;;;;;5074733;28;20513;-65
2022/12/12 05:20:14;;;;;;;58.42;32.67;;;0.20;99.90;;;;;;5074743;28;20039;-65
2022/12/12 05:22:40;;;;;;;63.42;33.95;;;-0.80;99.90;;;;;;5058910;28;20054;-65
2022/12/12 05:25:06;;;;;;;59.08;32.40;;;-0.10;99.90;;;;;;5073012;28;20040;-65
2022/12/12 05:27:32;;;;;;;62.60;34.20;;;0.10;99.90;;;;;;5073825;28;20509;-66
2022/12/12 05:29:58;;;;;;;63.30;33.38;;;-0.40;99.90;;;;;;5073860;28;20119;-63
2022/12/12 05:32:24;;;;;;;56.28;31.42;;;-0.30;99.90;;;;;;5059513;28;20296;-64
2022/12/12 05:34:50;;;;;;;57.33;31.50;;;-0.10;99.90;;;;;;5074044;28;20131;-64
2022/12/12 05:37:16;;;;;;;57.47;32.47;;;-0.50;99.90;;;;;;5077260;28;20071;-66
2022/12/12 05:39:41;;;;;;;58.08;34.25;;;-1.10;99.90;;;;;;5081307;28;20109;-65
2022/12/12 05:42:07;;;;;;;58.88;32.97;;;-0.80;99.90;;;;;;5059526;28;20111;-64
2022/12/12 05:44:33;;;;;;;62.17;34.05;;;-0.60;99.90;;;;;;5056867;28;20753;-64
2022/12/12 05:46:58;;;;;;;62.20;33.05;;;-0.90;99.90;;;;;;5058397;28;20052;-63
2022/12/12 05:49:24;;;;;;;66.60;33.88;;;-0.30;99.90;;;;;;5075664;28;20044;-65
2022/12/12 05:51:50;;;;;;;59.35;32.63;;;-0.50;99.90;;;;;;5105917;28;20047;-65
2022/12/12 05:54:15;;;;;;;60.92;34.67;;;-0.20;99.90;;;;;;5075481;28;20787;-64
2022/12/12 05:56:41;;;;;;;70.82;35.90;;;-1.10;99.90;;;;;;5078270;28;20055;-64
2022/12/12 05:59:07;;;;;;;68.10;35.33;;;-0.30;99.90;;;;;;5078626;28;20542;-66
2022/12/12 06:01:33;;;;;;;61.22;34.00;;;-0.40;99.90;;;;;;5082173;28;20032;-65
2022/12/12 06:03:58;;;;;;;74.32;36.08;;;-0.50;99.90;;;;;;5079648;28;20083;-65
2022/12/12 06:06:24;;;;;;;70.85;36.22;;;-0.30;99.90;;;;;;5076937;28;20044;-65
2022/12/12 06:08:50;;;;;;;69.10;34.80;;;-1.50;99.90;;;;;;5079492;28;20401;-65
2022/12/12 06:11:16;;;;;;;70.55;36.60;;;-1.50;99.90;;;;;;5059300;28;20439;-65
2022/12/12 06:13:42;;;;;;;72.97;36.95;;;-0.90;99.90;;;;;;5080019;28;20044;-65
2022/12/12 06:16:17;;;;;;;73.32;36.80;;;-0.80;99.90;;;;;;5081063;28;20377;-64
2022/12/12 06:18:45;;;;;;;79.25;37.88;;;-1.40;99.90;;;;;;5109339;27;20070;-65
2022/12/12 06:21:12;;;;;;;79.40;40.33;;;-1.70;99.90;;;;;;5091116;28;20105;-65
2022/12/12 06:23:41;;;;;;;83.28;38.22;;;-0.60;99.90;;;;;;5079692;28;20051;-65
2022/12/12 06:26:09;;;;;;;76.72;38.05;;;-1.00;99.90;;;;;;5061351;28;20508;-65
2022/12/12 06:28:36;;;;;;;83.93;37.38;;;-1.00;99.90;;;;;;5107332;27;20118;-65
2022/12/12 06:31:01;;;;;;;92.45;40.15;;;-0.70;99.90;;;;;;5105861;27;20051;-64
2022/12/12 06:33:27;;;;;;;88.88;40.40;;;-1.90;99.90;;;;;;5079263;28;20048;-64
2022/12/12 06:36:02;;;;;;;96.75;41.33;;;-0.80;99.90;;;;;;5078601;28;20103;-65
2022/12/12 06:38:29;;;;;;;96.80;40.30;;;-0.70;99.90;;;;;;5078132;28;20059;-65
2022/12/12 06:40:55;;;;;;;94.32;42.30;;;-1.00;99.90;;;;;;5078654;28;20028;-63
2022/12/12 06:43:22;;;;;;;99.18;43.70;;;-2.40;99.90;;;;;;5059220;28;20304;-64
2022/12/12 06:45:48;;;;;;;104.78;42.10;;;-1.10;99.90;;;;;;5079524;28;20048;-64
2022/12/12 06:48:14;;;;;;;96.68;39.83;;;-1.40;99.90;;;;;;5079459;28;20349;-66
2022/12/12 06:50:41;;;;;;;99.53;42.22;;;-2.40;99.90;;;;;;5079397;28;20079;-65
2022/12/12 06:53:06;;;;;;;96.65;40.10;;;-2.10;99.90;;;;;;5066154;28;20485;-65
2022/12/12 06:55:32;;;;;;;99.65;42.20;;;-2.10;99.90;;;;;;5079440;28;20123;-65
2022/12/12 06:57:58;;;;;;;95.05;39.90;;;-1.20;99.90;;;;;;5077131;28;20051;-64
2022/12/12 07:00:23;;;;;;;92.53;40.30;;;-1.80;99.90;;;;;;5075745;28;20194;-64
2022/12/12 07:02:49;;;;;;;90.53;40.25;;;-0.80;99.90;;;;;;5059905;28;20093;-64
2022/12/12 07:05:15;;;;;;;86.40;39.20;;;-2.30;99.90;;;;;;5079784;28;20042;-65
2022/12/12 07:07:41;;;;;;;81.57;39.58;;;-1.40;99.90;;;;;;5075500;28;20040;-63
2022/12/12 07:10:07;;;;;;;85.72;41.40;;;-2.20;99.90;;;;;;5109764;27;20113;-65
2022/12/12 07:12:33;;;;;;;83.22;40.45;;;-0.70;99.90;;;;;;5078494;28;20358;-66
2022/12/12 07:14:59;;;;;;;88.20;40.35;;;-0.80;99.90;;;;;;5077747;28;20526;-65
2022/12/12 07:17:24;;;;;;;92.25;41.42;;;-1.00;99.90;;;;;;5080359;28;20036;-65
2022/12/12 07:19:50;;;;;;;93.25;41.85;;;-0.90;99.90;;;;;;5080293;28;20072;-65
2022/12/12 07:22:16;;;;;;;90.65;41.78;;;-1.60;99.90;;;;;;5082626;28;20202;-64
2022/12/12 07:24:42;;;;;;;83.95;39.47;;;-0.80;99.90;;;;;;5080455;28;20079;-64
2022/12/12 07:27:07;;;;;;;92.55;41.20;;;-1.80;99.90;;;;;;5077859;28;20180;-64
2022/12/12 07:29:33;;;;;;;81.38;38.40;;;-1.90;99.90;;;;;;5063602;28;20406;-64
2022/12/12 07:31:59;;;;;;;80.70;38.47;;;-1.90;99.90;;;;;;5075906;28;20044;-64
2022/12/12 07:34:27;;;;;;;90.18;39.97;;;-2.10;99.90;;;;;;5079142;28;20040;-63
2022/12/12 07:36:53;;;;;;;90.88;41.38;;;-1.70;99.90;;;;;;5077117;28;20650;-63
2022/12/12 07:39:19;;;;;;;76.97;37.45;;;-1.00;99.90;;;;;;5059719;28;20056;-64
2022/12/12 07:41:44;;;;;;;69.15;34.83;;;-1.80;99.90;;;;;;5077151;28;20092;-64
2022/12/12 07:44:10;;;;;;;65.25;34.20;;;-1.40;99.90;;;;;;5079708;28;20122;-64
2022/12/12 07:46:36;;;;;;;66.65;35.13;;;-1.20;99.90;;;;;;5074743;28;20050;-64
2022/12/12 07:49:02;;;;;;;65.50;34.45;;;-1.20;99.90;;;;;;5082019;28;20048;-63
2022/12/12 07:51:29;;;;;;;67.15;35.05;;;-2.00;99.90;;;;;;5081254;28;20441;-64
2022/12/12 07:53:56;;;;;;;71.65;34.70;;;-2.30;99.90;;;;;;5078167;28;20372;-64
2022/12/12 07:56:22;;;;;;;69.80;35.83;;;-1.30;99.90;;;;;;5079101;28;20178;-66
2022/12/12 07:58:48;;;;;;;77.25;36.00;;;-1.20;99.90;;;;;;5078182;28;20036;-66
2022/12/12 08:01:19;;;;;;;77.35;37.67;;;-2.00;99.90;;;;;;5078330;28;20032;-65
2022/12/12 08:03:46;;;;;;;80.22;38.80;;;-1.10;99.90;;;;;;5076491;28;20545;-65
2022/12/12 08:06:15;;;;;;;89.88;41.40;;;-2.00;99.90;;;;;;5078067;28;20048;-65
2022/12/12 08:08:41;;;;;;;89.90;41.08;;;-2.40;99.90;;;;;;5077541;28;20520;-65
2022/12/12 08:11:09;;;;;;;87.88;40.00;;;-2.30;99.90;;;;;;5105279;27;20724;-64
2022/12/12 08:13:36;;;;;;;84.22;40.03;;;-1.20;99.90;;;;;;5077340;28;20529;-65
2022/12/12 08:16:03;;;;;;;92.05;41.53;;;-1.30;99.90;;;;;;5108942;27;20039;-65
2022/12/12 08:18:29;;;;;;;104.00;43.53;;;-1.20;99.90;;;;;;5067925;28;20047;-64
2022/12/12 08:20:55;;;;;;;93.05;41.15;;;-0.80;99.90;;;;;;5079769;28;20310;-64
2022/12/12 08:23:20;;;;;;;98.03;43.13;;;-1.60;99.90;;;;;;5090981;28;20036;-66
2022/12/12 08:25:46;;;;;;;106.95;45.15;;;-0.90;99.90;;;;;;5075330;28;20540;-65
2022/12/12 08:28:12;;;;;;;98.82;43.65;;;-1.90;99.90;;;;;;5077617;28;20563;-65
2022/12/12 08:30:38;;;;;;;99.32;43.42;;;-1.90;99.90;;;;;;5061336;28;20126;-63
2022/12/12 08:33:03;;;;;;;104.05;42.85;;;-1.70;99.90;;;;;;5073510;28;20040;-64
2022/12/12 08:35:30;;;;;;;101.43;43.00;;;-1.10;99.90;;;;;;5076314;28;20075;-64
2022/12/12 08:37:55;;;;;;;98.15;42.42;;;-1.20;99.90;;;;;;5075541;28;20132;-65
2022/12/12 08:40:21;;;;;;;97.57;40.97;;;-1.50;99.90;;;;;;5077397;28;20123;-65
2022/12/12 08:42:47;;;;;;;91.30;40.45;;;-0.50;99.90;;;;;;5042336;28;20047;-65
2022/12/12 08:45:13;;;;;;;95.63;42.38;;;-1.60;99.90;;;;;;5080715;28;20453;-64
2022/12/12 08:47:38;;;;;;;91.45;41.67;;;-0.40;99.90;;;;;;5061467;28;20105;-65
2022/12/12 08:50:05;;;;;;;96.15;42.92;;;-1.50;99.90;;;;;;5058603;28;20124;-65
2022/12/12 08:52:31;;;;;;;98.18;44.60;;;-1.30;99.90;;;;;;5110387;27;20397;-64
2022/12/12 08:54:56;;;;;;;94.10;43.40;;;-1.00;99.90;;;;;;5060788;28;20493;-65
2022/12/12 08:57:22;;;;;;;85.72;40.72;;;-0.70;99.90;;;;;;5059788;28;20142;-64
2022/12/12 08:59:48;;;;;;;87.50;41.35;;;0.00;99.90;;;;;;5062722;28;20042;-65
2022/12/12 09:02:13;;;;;;;80.47;39.42;;;0.10;99.90;;;;;;5062445;28;20699;-64
2022/12/12 09:04:39;;;;;;;83.28;40.83;;;-0.20;99.90;;;;;;5072628;28;20339;-65
2022/12/12 09:07:05;;;;;;;81.30;39.97;;;-0.30;99.90;;;;;;5076228;28;20036;-64
2022/12/12 09:09:32;;;;;;;79.10;38.38;;;-0.70;99.90;;;;;;5078849;28;20046;-63
2022/12/12 09:11:57;;;;;;;75.20;39.78;;;0.20;99.90;;;;;;5077896;28;20036;-63
2022/12/12 09:14:23;;;;;;;72.18;37.63;;;-0.10;99.90;;;;;;5079557;28;20040;-64
2022/12/12 09:16:49;;;;;;;68.40;36.70;;;0.10;99.90;;;;;;5079242;28;20051;-64
2022/12/12 09:19:15;;;;;;;64.68;35.35;;;-0.70;99.90;;;;;;5077436;28;20050;-65
2022/12/12 09:21:41;;;;;;;67.15;35.47;;;-0.10;99.90;;;;;;5073423;28;20095;-64
2022/12/12 09:24:07;;;;;;;58.42;33.33;;;0.00;99.90;;;;;;5078510;28;20134;-65
2022/12/12 09:26:33;;;;;;;54.17;31.48;;;0.20;99.90;;;;;;5108079;27;20427;-65
2022/12/12 09:28:58;;;;;;;60.63;33.65;;;-0.50;99.90;;;;;;5089731;28;20101;-66
2022/12/12 09:31:24;;;;;;;59.17;32.63;;;-0.40;99.90;;;;;;5061333;28;20055;-66
2022/12/12 09:33:50;;;;;;;54.92;32.83;;;0.20;99.90;;;;;;5091599;28;20044;-65
2022/12/12 09:36:16;;;;;;;58.63;32.25;;;0.20;99.90;;;;;;5106012;28;20044;-65
2022/12/12 09:38:42;;;;;;;48.78;28.83;;;0.20;99.90;;;;;;5075366;28;20060;-65
2022/12/12 09:41:08;;;;;;;47.78;29.75;;;0.30;99.90;;;;;;5077709;28;20137;-66
2022/12/12 09:44:02;;;;;;;46.78;28.77;;;0.10;99.90;;;;;;5076259;28;20048;-65
2022/12/12 09:46:30;;;;;;;46.60;28.17;;;0.10;99.90;;;;;;5102737;28;20499;-65
2022/12/12 09:49:05;;;;;;;45.80;27.55;;;0.70;99.90;;;;;;5077684;28;20487;-65
2022/12/12 09:51:31;;;;;;;40.80;26.85;;;0.80;99.90;;;;;;5105865;28;20138;-65
2022/12/12 09:53:57;;;;;;;38.85;25.27;;;0.90;99.90;;;;;;5075569;28;20040;-65
2022/12/12 09:56:36;;;;;;;38.95;24.02;;;0.90;99.90;;;;;;5072619;28;20036;-66
2022/12/12 09:59:09;;;;;;;35.85;24.13;;;1.10;99.90;;;;;;5075045;28;20078;-65
2022/12/12 10:02:16;;;;;;;32.70;21.90;;;1.10;99.90;;;;;;5059801;28;20032;-65
2022/12/12 10:04:46;;;;;;;30.83;21.52;;;1.10;99.90;;;;;;5078987;28;20048;-65
2022/12/12 10:07:40;;;;;;;33.53;22.40;;;1.30;99.90;;;;;;5075342;28;20097;-64
2022/12/12 10:10:21;;;;;;;31.17;22.48;;;1.20;99.90;;;;;;5068028;28;20091;-64
2022/12/12 10:12:47;;;;;;;33.08;20.90;;;1.20;99.90;;;;;;5078747;28;20063;-63
2022/12/12 10:15:39;;;;;;;28.02;20.38;;;1.30;99.90;;;;;;5073696;28;20382;-64
2022/12/12 10:18:27;;;;;;;29.50;20.13;;;1.30;99.90;;;;;;5076982;28;20401;-64
2022/12/12 10:20:58;;;;;;;28.58;20.42;;;1.10;99.90;;;;;;5078002;28;20036;-65
2022/12/12 10:23:36;;;;;;;27.45;19.58;;;1.30;99.90;;;;;;5076710;28;20248;-64
2022/12/12 10:26:24;;;;;;;28.17;20.27;;;1.20;99.90;;;;;;5057065;28;20050;-65
2022/12/12 10:28:54;;;;;;;20.42;16.00;;;1.30;99.90;;;;;;5063170;28;20096;-65
2022/12/12 10:31:35;;;;;;;21.77;16.50;;;1.30;99.90;;;;;;5077334;28;20464;-65
2022/12/12 10:34:10;;;;;;;22.73;16.75;;;1.30;99.90;;;;;;5076956;28;20379;-63
2022/12/12 10:36:45;;;;;;;23.15;16.50;;;1.40;99.90;;;;;;5078269;28;20063;-66
2022/12/12 10:39:23;;;;;;;25.85;19.00;;;1.50;99.90;;;;;;5064985;28;20044;-65
2022/12/12 10:42:11;;;;;;;22.73;15.90;;;1.50;99.90;;;;;;5072537;28;20433;-65
2022/12/12 10:45:01;;;;;;;23.52;17.08;;;1.80;99.90;;;;;;5058883;28;20047;-65
2022/12/12 10:47:27;;;;;;;23.83;17.77;;;1.90;99.90;;;;;;5110180;27;20414;-64
2022/12/12 10:50:12;;;;;;;22.75;17.42;;;2.00;99.90;;;;;;5081731;28;20059;-65
2022/12/12 10:52:38;;;;;;;22.23;17.35;;;2.20;99.90;;;;;;5077154;28;20043;-65
2022/12/12 10:55:21;;;;;;;28.63;20.67;;;2.10;99.90;;;;;;5079180;28;20044;-65
2022/12/12 10:57:47;;;;;;;32.17;22.67;;;2.10;99.90;;;;;;5079053;28;20061;-65
2022/12/12 11:00:38;;;;;;;29.73;21.25;;;1.90;99.90;;;;;;5078074;28;20286;-65
2022/12/12 11:03:27;;;;;;;30.90;21.50;;;1.80;99.90;;;;;;5077856;28;20059;-66
2022/12/12 11:05:55;;;;;;;32.40;23.17;;;1.70;99.90;;;;;;5077842;28;20040;-65
2022/12/12 11:08:29;;;;;;;29.95;21.70;;;1.70;99.90;;;;;;5079194;28;20239;-64
2022/12/12 11:11:03;;;;;;;32.58;22.02;;;1.70;99.90;;;;;;5079832;28;20511;-66
2022/12/12 11:13:30;;;;;;;29.50;22.90;;;1.70;99.90;;;;;;5107234;27;20076;-66
2022/12/12 11:16:05;;;;;;;34.15;23.42;;;1.70;99.90;;;;;;5076106;28;20094;-64
2022/12/12 11:18:31;;;;;;;34.05;22.60;;;1.70;99.90;;;;;;5078833;28;20039;-63
2022/12/12 11:21:12;;;;;;;31.23;21.30;;;1.80;99.90;;;;;;5079461;28;20040;-67
2022/12/12 11:23:46;;;;;;;31.92;22.63;;;1.70;99.90;;;;;;5079428;28;21915;-66
2022/12/12 11:26:16;;;;;;;31.73;23.08;;;1.80;99.90;;;;;;5078490;28;20063;-67
2022/12/12 11:28:50;;;;;;;31.85;23.13;;;2.30;99.90;;;;;;5077853;28;20043;-67
2022/12/12 11:31:22;;;;;;;30.63;22.65;;;2.50;99.90;;;;;;5078616;28;20063;-66
2022/12/12 11:33:55;;;;;;;32.72;23.45;;;2.70;99.90;;;;;;5077335;28;20083;-66
2022/12/12 11:36:30;;;;;;;33.78;25.35;;;2.80;99.90;;;;;;5079725;28;20452;-66
2022/12/12 11:38:58;;;;;;;33.28;23.90;;;2.60;99.90;;;;;;5058622;28;20092;-67
2022/12/12 11:41:24;;;;;;;35.65;25.00;;;2.50;99.90;;;;;;5077428;28;20437;-66
2022/12/12 11:43:49;;;;;;;34.17;25.08;;;2.40;99.90;;;;;;5088079;28;20036;-67
2022/12/12 11:46:30;;;;;;;33.85;24.65;;;2.30;99.90;;;;;;5079262;28;20079;-66
2022/12/12 11:49:02;;;;;;;38.13;26.70;;;2.30;99.90;;;;;;5081285;28;20043;-65
2022/12/12 11:51:41;;;;;;;35.25;25.25;;;2.20;99.90;;;;;;5081814;28;20493;-67
2022/12/12 11:54:29;;;;;;;36.30;26.38;;;2.40;99.90;;;;;;5109807;27;20085;-65
2022/12/12 11:57:09;;;;;;;32.08;25.20;;;2.50;99.90;;;;;;5079221;28;20708;-66
2022/12/12 12:00:02;;;;;;;31.02;24.70;;;2.80;99.90;;;;;;5075041;28;20040;-66
2022/12/12 12:02:49;;;;;;;33.38;25.95;;;3.40;99.90;;;;;;5078856;28;20574;-66
2022/12/12 12:05:30;;;;;;;31.77;24.23;;;3.60;99.90;;;;;;5079549;28;20549;-66
2022/12/12 12:08:09;;;;;;;31.75;25.10;;;3.80;99.90;;;;;;5080457;28;20040;-64
2022/12/12 12:10:47;;;;;;;31.13;24.77;;;4.50;99.90;;;;;;5080642;28;20397;-65
2022/12/12 12:13:15;;;;;;;31.00;22.70;;;4.90;99.90;;;;;;5080360;28;20425;-65
2022/12/12 12:15:53;;;;;;;30.30;23.02;;;4.70;99.90;;;;;;5080088;28;20044;-65
2022/12/12 12:19:00;;;;;;;29.88;23.38;;;4.60;99.90;;;;;;5078934;28;20454;-66
2022/12/12 12:21:25;;;;;;;28.80;22.35;;;4.60;99.90;;;;;;5079404;28;20047;-66
2022/12/12 12:24:07;;;;;;;33.25;22.05;;;4.60;99.90;;;;;;5080561;28;20284;-67
2022/12/12 12:27:14;;;;;;;25.85;21.45;;;4.30;99.90;;;;;;5090949;28;20048;-67
2022/12/12 12:29:49;;;;;;;27.08;21.20;;;4.10;99.90;;;;;;5068301;28;20052;-66
2022/12/12 12:32:30;;;;;;;25.65;21.17;;;3.70;99.90;;;;;;5076418;28;20054;-66
2022/12/12 12:35:05;;;;;;;25.17;20.25;;;3.60;99.90;;;;;;5077534;28;20568;-66
2022/12/12 12:37:33;;;;;;;26.38;21.35;;;3.30;99.90;;;;;;5060483;28;20513;-65
2022/12/12 12:40:13;;;;;;;28.15;21.40;;;3.20;99.90;;;;;;5079614;28;20630;-65
2022/12/12 12:42:46;;;;;;;25.40;21.15;;;3.20;99.90;;;;;;5108066;27;20047;-66
2022/12/12 12:45:44;;;;;;;28.13;21.13;;;3.50;99.90;;;;;;5079746;28;20409;-65
2022/12/12 12:48:38;;;;;;;28.10;21.40;;;3.40;99.90;;;;;;5075170;28;20046;-65
2022/12/12 12:51:12;;;;;;;30.55;21.85;;;3.40;99.90;;;;;;5077477;28;20036;-65
2022/12/12 12:53:44;;;;;;;27.10;21.20;;;3.10;99.90;;;;;;5077883;28;20048;-65
2022/12/12 12:56:26;;;;;;;27.58;21.83;;;2.90;99.90;;;;;;5077329;28;20039;-65
2022/12/12 12:58:56;;;;;;;29.25;22.75;;;3.30;99.90;;;;;;5078957;28;20043;-66
2022/12/12 13:01:45;;;;;;;28.38;21.85;;;3.50;99.90;;;;;;5079059;28;20067;-65
2022/12/12 13:04:20;;;;;;;29.50;22.15;;;3.40;99.90;;;;;;5071383;28;20039;-65
2022/12/12 13:07:19;;;;;;;28.77;21.08;;;3.50;99.90;;;;;;5077814;28;20112;-66
2022/12/12 13:10:06;;;;;;;26.65;20.02;;;3.60;99.90;;;;;;5078888;28;20615;-66
2022/12/12 13:12:50;;;;;;;27.63;19.67;;;3.50;99.90;;;;;;5078695;28;20832;-65